Allouez, Wisconsin
Current Conditions -  °F | °C
As of 9:53 AM on Tuesday 21 Oct 2014 (Local Time) from KGRB Reporting Station
Overcast Overcast  
Wind Chill: 39°   Ceiling: 2300
Heat Index: 45°   Visibility: 10mi
Dew Point: 37°   Wind: 13mph
Humidity: 74%   Direction: 360°N
Pressure: 30.23"   Gusts: NA
Location:  44.48°N, 88.02°W
Report Text: KGRB 211453Z 36011KT 10SM OVC023 07/03 A3023 RMK AO2 SLP240 T00720028 53021
Loading
Personal Weather Stations






























Interactive Weather Map New forecast layout! Learn more

10-Day Weather Forecast

Advertisements
Track Severe Weather on mobile